Terminal Aerodrome Forecast
Issued by NWS

Home | Current Version | Previous Version | Text Only | Print | Product List | Glossary On
Versions: 1 2 3 4 5 6 7 8 9 10 11 12 13
000
FTUS44 KLIX 201125
TAFMSY
TAF
KMSY 201125Z 2012/2118 09004KT P6SM VCSH BKN250
     FM202100 14009KT P6SM BKN050 BKN100 PROB30 2021/2024 4SM -SHRA
      OVC025
     FM210300 12007KT P6SM FEW070 SCT090
     FM210800 12005KT 4SM BR SCT250
     FM211100 12005KT P6SM BKN200
     FM211500 12006KT P6SM BKN040=

USA.gov is the U.S. government's official web portal to all federal, state and local government web resources and services.